Terminal Aerodrome Forecast
Issued by NWS Charleston, WV

Current Version | Previous Version | Text Only | Print | Product List | Glossary Off
Versions: 1 2 3 4 5 6 7 8 9 10 11 12 13 14 15 16 17 18 19 20

000
FTUS41 KRLX 010914 AAA
TAFPKB
TAF AMD
KPKB 010914Z 0109/0206 19007KT 6SM -SHRA BR BKN008 OVC015
     FM011000 18006KT 5SM BR OVC025
     FM011100 20005KT P6SM OVC035
     FM011600 22005KT P6SM VCTS BKN040CB=

USA.gov is the U.S. government's official web portal to all federal, state and local government web resources and services.